Time,TemperatureF,DewpointF,PressureIn,WindDirection,WindDirectionDegrees,WindSpeedMPH,WindSpeedGustMPH,Humidity,HourlyPrecipIn,Conditions,Clouds,dailyrainin,SoftwareType,DateUTC
2015-08-04 00:00:00,74.8,71.3,30.03,WNW,285,0.0,0.0,89,0.00,,,0.00,Wunderground PWS Mod,2015-08-04 04:00:00,
2015-08-04 00:05:00,74.6,71.1,30.03,WNW,285,0.0,0.0,89,0.00,,,0.00,Wunderground PWS Mod,2015-08-04 04:05:00,
2015-08-04 00:15:00,74.8,71.3,30.03,WNW,285,0.0,0.0,89,0.00,,,0.00,Wunderground PWS Mod,2015-08-04 04:15:00,
2015-08-04 00:25:00,74.8,71.3,30.04,WNW,285,0.0,0.0,89,0.00,,,0.00,Wunderground PWS Mod,2015-08-04 04:25:00,
2015-08-04 00:30:00,74.7,71.2,30.03,N/A,-737280,0.0,0.0,89,0.00,,,0.00,Wunderground PWS Mod,2015-08-04 04:30:00,
2015-08-04 00:35:00,74.9,71.4,30.03,WNW,285,0.0,0.0,89,0.00,,,0.00,Wunderground PWS Mod,2015-08-04 04:35:00,
2015-08-04 00:45:00,74.8,71.3,30.03,WNW,285,0.0,0.0,89,0.00,,,0.00,Wunderground PWS Mod,2015-08-04 04:45:00,
2015-08-04 00:55:00,74.7,71.2,30.03,WNW,285,0.0,0.0,89,0.00,,,0.00,Wunderground PWS Mod,2015-08-04 04:55:00,
2015-08-04 01:00:00,74.6,71.1,30.03,WNW,285,0.0,0.0,89,0.00,,,0.00,Wunderground PWS Mod,2015-08-04 05:00:00,
2015-08-04 01:05:00,74.5,71.0,30.02,WNW,285,0.0,0.0,89,0.00,,,0.00,Wunderground PWS Mod,2015-08-04 05:05:00,
2015-08-04 01:15:00,74.1,71.0,30.02,WNW,285,0.0,0.0,90,0.00,,,0.00,Wunderground PWS Mod,2015-08-04 05:15:00,
2015-08-04 01:20:00,74.1,70.6,30.02,N/A,-737280,0.0,0.0,89,0.00,,,0.00,Wunderground PWS Mod,2015-08-04 05:20:00,
2015-08-04 01:30:00,73.9,70.5,30.02,WNW,285,0.0,0.0,89,0.00,,,0.00,Wunderground PWS Mod,2015-08-04 05:30:00,
2015-08-04 01:35:00,73.9,70.5,30.02,WNW,285,0.0,0.0,89,0.00,,,0.00,Wunderground PWS Mod,2015-08-04 05:35:00,
2015-08-04 01:45:00,73.9,70.5,30.02,WNW,285,0.0,0.0,89,0.00,,,0.00,Wunderground PWS Mod,2015-08-04 05:45:00,
2015-08-04 01:50:00,73.8,70.4,30.02,WNW,285,0.0,0.0,89,0.00,,,0.00,Wunderground PWS Mod,2015-08-04 05:50:00,
2015-08-04 01:55:00,73.8,70.7,30.02,WNW,285,0.0,0.0,90,0.00,,,0.00,Wunderground PWS Mod,2015-08-04 05:55:00,
2015-08-04 02:05:00,73.6,70.8,30.02,WNW,285,0.0,0.0,91,0.00,,,0.00,Wunderground PWS Mod,2015-08-04 06:05:00,
2015-08-04 02:15:00,73.4,70.6,30.02,WNW,285,0.0,0.0,91,0.00,,,0.00,Wunderground PWS Mod,2015-08-04 06:15:00,
2015-08-04 02:20:00,73.3,70.5,30.02,WNW,285,0.0,0.0,91,0.00,,,0.00,Wunderground PWS Mod,2015-08-04 06:20:00,
2015-08-04 02:25:00,73.2,70.4,30.02,WNW,285,0.0,0.0,91,0.00,,,0.00,Wunderground PWS Mod,2015-08-04 06:25:00,
2015-08-04 02:35:00,73.2,70.4,30.00,WNW,285,0.0,0.0,91,0.00,,,0.00,Wunderground PWS Mod,2015-08-04 06:35:00,
2015-08-04 02:40:00,73.0,70.2,30.00,WNW,285,0.0,0.0,91,0.00,,,0.00,Wunderground PWS Mod,2015-08-04 06:40:00,
2015-08-04 02:45:00,73.0,70.5,30.00,WNW,285,0.0,0.0,92,0.00,,,0.00,Wunderground PWS Mod,2015-08-04 06:45:00,
2015-08-04 02:55:00,73.0,70.5,30.01,WNW,285,0.0,0.0,92,0.00,,,0.00,Wunderground PWS Mod,2015-08-04 06:55:00,
2015-08-04 03:05:00,73.0,70.5,30.00,WNW,285,0.0,0.0,92,0.00,,,0.00,Wunderground PWS Mod,2015-08-04 07:05:00,
2015-08-04 03:10:00,73.0,70.5,30.00,WNW,285,0.0,0.0,92,0.00,,,0.00,Wunderground PWS Mod,2015-08-04 07:10:00,
2015-08-04 03:15:00,73.0,70.5,30.00,WNW,285,0.0,0.0,92,0.00,,,0.00,Wunderground PWS Mod,2015-08-04 07:15:00,
2015-08-04 03:25:00,73.1,70.6,30.00,WNW,285,0.0,0.0,92,0.00,,,0.00,Wunderground PWS Mod,2015-08-04 07:25:00,
2015-08-04 03:30:00,73.1,70.6,30.00,WNW,285,0.0,0.0,92,0.00,,,0.00,Wunderground PWS Mod,2015-08-04 07:30:00,
2015-08-04 03:40:00,73.1,70.6,30.00,WNW,285,0.0,0.0,92,0.00,,,0.00,Wunderground PWS Mod,2015-08-04 07:40:00,
2015-08-04 03:45:00,73.2,70.7,30.00,WNW,285,0.0,0.0,92,0.00,,,0.00,Wunderground PWS Mod,2015-08-04 07:45:00,
2015-08-04 03:55:00,73.1,70.6,30.00,WNW,285,0.0,0.0,92,0.00,,,0.00,Wunderground PWS Mod,2015-08-04 07:55:00,
2015-08-04 04:00:00,73.1,70.6,30.00,N/A,-737280,0.0,0.0,92,0.00,,,0.00,Wunderground PWS Mod,2015-08-04 08:00:00,
2015-08-04 04:05:00,73.1,70.6,30.00,WNW,285,0.0,0.0,92,0.00,,,0.00,Wunderground PWS Mod,2015-08-04 08:05:00,
2015-08-04 04:15:00,73.1,70.3,30.00,WNW,285,0.0,0.0,91,0.00,,,0.00,Wunderground PWS Mod,2015-08-04 08:15:00,
2015-08-04 04:25:00,73.1,70.3,30.00,WNW,285,0.0,0.0,91,0.00,,,0.00,Wunderground PWS Mod,2015-08-04 08:25:00,
2015-08-04 04:30:00,73.0,70.2,30.00,WNW,285,0.0,0.0,91,0.00,,,0.00,Wunderground PWS Mod,2015-08-04 08:30:00,
2015-08-04 04:35:00,73.0,70.2,30.01,WNW,285,0.0,0.0,91,0.00,,,0.00,Wunderground PWS Mod,2015-08-04 08:35:00,
2015-08-04 04:45:00,72.9,70.1,30.01,WNW,285,0.0,0.0,91,0.00,,,0.00,Wunderground PWS Mod,2015-08-04 08:45:00,
2015-08-04 04:50:00,72.9,70.1,30.01,N/A,-737280,0.0,0.0,91,0.00,,,0.00,Wunderground PWS Mod,2015-08-04 08:50:00,
2015-08-04 05:00:00,72.9,70.1,30.01,WNW,285,0.0,0.0,91,0.00,,,0.00,Wunderground PWS Mod,2015-08-04 09:00:00,
2015-08-04 05:05:00,72.9,70.1,30.01,WNW,285,0.0,0.0,91,0.00,,,0.00,Wunderground PWS Mod,2015-08-04 09:05:00,
2015-08-04 05:15:00,72.9,70.1,30.01,WNW,285,0.0,0.0,91,0.00,,,0.00,Wunderground PWS Mod,2015-08-04 09:15:00,
2015-08-04 05:25:00,72.8,70.0,30.01,WNW,285,0.0,0.0,91,0.00,,,0.00,Wunderground PWS Mod,2015-08-04 09:25:00,
2015-08-04 05:30:00,72.8,70.0,30.01,WNW,285,0.0,0.0,91,0.00,,,0.00,Wunderground PWS Mod,2015-08-04 09:30:00,
2015-08-04 05:35:00,72.8,70.3,30.01,WNW,285,0.0,0.0,92,0.00,,,0.00,Wunderground PWS Mod,2015-08-04 09:35:00,
2015-08-04 05:45:00,72.8,70.0,30.01,WNW,285,0.0,0.0,91,0.00,,,0.00,Wunderground PWS Mod,2015-08-04 09:45:00,
2015-08-04 05:50:00,72.8,70.0,30.01,N/A,-737280,0.0,0.0,91,0.00,,,0.00,Wunderground PWS Mod,2015-08-04 09:50:00,
2015-08-04 05:55:00,72.8,70.0,30.01,WNW,285,0.0,0.0,91,0.00,,,0.00,Wunderground PWS Mod,2015-08-04 09:55:00,
2015-08-04 06:05:00,72.7,70.2,30.02,WNW,285,0.0,0.0,92,0.00,,,0.00,Wunderground PWS Mod,2015-08-04 10:05:00,
2015-08-04 06:15:00,72.7,70.2,30.02,WNW,285,0.0,0.0,92,0.00,,,0.00,Wunderground PWS Mod,2015-08-04 10:15:00,
2015-08-04 06:20:00,72.7,70.2,30.02,WNW,285,0.0,0.0,92,0.00,,,0.00,Wunderground PWS Mod,2015-08-04 10:20:00,
2015-08-04 06:25:00,72.7,70.2,30.02,WNW,285,0.0,0.0,92,0.00,,,0.00,Wunderground PWS Mod,2015-08-04 10:25:00,
2015-08-04 06:35:00,72.7,70.2,30.03,WNW,285,0.0,0.0,92,0.00,,,0.00,Wunderground PWS Mod,2015-08-04 10:35:00,
2015-08-04 06:45:00,72.7,70.2,30.03,WNW,285,0.0,0.0,92,0.00,,,0.00,Wunderground PWS Mod,2015-08-04 10:45:00,
2015-08-04 06:50:00,72.7,70.2,30.03,WNW,285,0.0,0.0,92,0.00,,,0.00,Wunderground PWS Mod,2015-08-04 10:50:00,
2015-08-04 06:55:00,72.7,70.2,30.03,WNW,285,0.0,0.0,92,0.00,,,0.00,Wunderground PWS Mod,2015-08-04 10:55:00,
2015-08-04 07:05:00,72.7,70.2,30.03,WNW,285,0.0,0.0,92,0.00,,,0.00,Wunderground PWS Mod,2015-08-04 11:05:00,
2015-08-04 07:15:00,72.8,70.3,30.03,WNW,285,0.0,0.0,92,0.00,,,0.00,Wunderground PWS Mod,2015-08-04 11:15:00,
2015-08-04 07:25:00,72.9,70.4,30.03,WNW,285,0.0,0.0,92,0.00,,,0.00,Wunderground PWS Mod,2015-08-04 11:25:00,
2015-08-04 07:35:00,73.1,70.6,30.03,WNW,285,0.0,0.0,92,0.00,,,0.00,Wunderground PWS Mod,2015-08-04 11:35:00,
2015-08-04 07:40:00,73.1,70.6,30.03,N/A,-737280,0.0,0.0,92,0.00,,,0.00,Wunderground PWS Mod,2015-08-04 11:40:00,
2015-08-04 07:45:00,73.5,71.4,30.03,WNW,285,0.0,0.0,93,0.00,,,0.00,Wunderground PWS Mod,2015-08-04 11:45:00,
2015-08-04 07:55:00,74.0,71.8,30.04,WNW,285,0.0,0.0,93,0.00,,,0.00,Wunderground PWS Mod,2015-08-04 11:55:00,
2015-08-04 08:05:00,74.5,72.3,30.04,WNW,285,0.0,0.0,93,0.00,,,0.00,Wunderground PWS Mod,2015-08-04 12:05:00,
2015-08-04 08:10:00,74.7,72.9,30.04,WNW,285,0.0,0.0,94,0.00,,,0.00,Wunderground PWS Mod,2015-08-04 12:10:00,
2015-08-04 08:15:00,74.9,73.1,30.04,WNW,285,0.0,0.0,94,0.00,,,0.00,Wunderground PWS Mod,2015-08-04 12:15:00,
2015-08-04 08:25:00,75.4,73.6,30.05,WNW,285,0.0,0.0,94,0.00,,,0.00,Wunderground PWS Mod,2015-08-04 12:25:00,
2015-08-04 08:30:00,75.5,73.7,30.05,N/A,-737280,0.0,0.0,94,0.00,,,0.00,Wunderground PWS Mod,2015-08-04 12:30:00,
2015-08-04 08:35:00,76.0,74.1,30.05,WNW,285,0.0,0.0,94,0.00,,,0.00,Wunderground PWS Mod,2015-08-04 12:35:00,
2015-08-04 08:45:00,76.8,74.9,30.05,WNW,285,0.0,0.0,94,0.00,,,0.00,Wunderground PWS Mod,2015-08-04 12:45:00,
2015-08-04 08:55:00,78.0,75.5,30.05,WNW,285,0.0,0.0,92,0.00,,,0.00,Wunderground PWS Mod,2015-08-04 12:55:00,
2015-08-04 09:00:00,78.6,75.8,30.05,WNW,285,0.0,0.0,91,0.00,,,0.00,Wunderground PWS Mod,2015-08-04 13:00:00,
2015-08-04 09:10:00,79.9,75.7,30.05,WNW,285,0.0,0.0,87,0.00,,,0.00,Wunderground PWS Mod,2015-08-04 13:10:00,
2015-08-04 09:15:00,80.7,75.4,30.05,WNW,285,0.0,0.0,84,0.00,,,0.00,Wunderground PWS Mod,2015-08-04 13:15:00,
2015-08-04 09:20:00,80.9,75.2,30.05,South,180,1.0,4.0,83,0.00,,,0.00,Wunderground PWS Mod,2015-08-04 13:20:00,
2015-08-04 09:25:00,82.0,75.2,30.05,SSE,154,0.0,4.0,80,0.00,,,0.00,Wunderground PWS Mod,2015-08-04 13:25:00,
2015-08-04 09:35:00,82.8,75.6,30.05,SSE,153,0.0,1.0,79,0.00,,,0.00,Wunderground PWS Mod,2015-08-04 13:35:00,
2015-08-04 09:40:00,83.0,75.4,30.05,SSE,153,0.0,2.0,78,0.00,,,0.00,Wunderground PWS Mod,2015-08-04 13:40:00,
2015-08-04 09:50:00,83.6,75.2,30.05,SE,141,1.0,1.0,76,0.00,,,0.00,Wunderground PWS Mod,2015-08-04 13:50:00,
2015-08-04 10:00:00,83.9,74.7,30.05,SE,138,1.0,4.0,74,0.00,,,0.00,Wunderground PWS Mod,2015-08-04 14:00:00,
2015-08-04 10:05:00,84.1,75.3,30.06,SE,137,1.0,1.0,75,0.00,,,0.00,Wunderground PWS Mod,2015-08-04 14:05:00,
2015-08-04 10:10:00,84.2,75.4,30.06,SE,135,3.0,5.0,75,0.00,,,0.00,Wunderground PWS Mod,2015-08-04 14:10:00,
2015-08-04 10:15:00,84.7,75.5,30.06,SE,136,1.0,1.0,74,0.00,,,0.00,Wunderground PWS Mod,2015-08-04 14:15:00,
2015-08-04 10:25:00,85.4,75.8,30.06,SE,136,0.0,1.0,73,0.00,,,0.00,Wunderground PWS Mod,2015-08-04 14:25:00,
2015-08-04 10:30:00,85.6,75.9,30.06,N/A,-737280,0.0,0.0,73,0.00,,,0.00,Wunderground PWS Mod,2015-08-04 14:30:00,
2015-08-04 10:40:00,86.0,75.5,30.06,SE,133,1.0,1.0,71,0.00,,,0.00,Wunderground PWS Mod,2015-08-04 14:40:00,
2015-08-04 10:45:00,86.3,75.4,30.06,SE,132,1.0,4.0,70,0.00,,,0.00,Wunderground PWS Mod,2015-08-04 14:45:00,
2015-08-04 10:55:00,86.7,75.7,30.07,ESE,120,1.0,1.0,70,0.00,,,0.00,Wunderground PWS Mod,2015-08-04 14:55:00,
2015-08-04 11:05:00,87.1,75.3,30.07,ESE,106,1.0,1.0,68,0.00,,,0.00,Wunderground PWS Mod,2015-08-04 15:05:00,
2015-08-04 11:15:00,87.9,76.0,30.07,ESE,110,1.0,1.0,68,0.00,,,0.00,Wunderground PWS Mod,2015-08-04 15:15:00,
2015-08-04 11:20:00,87.8,75.9,30.07,ESE,113,1.0,1.0,68,0.00,,,0.00,Wunderground PWS Mod,2015-08-04 15:20:00,
2015-08-04 11:25:00,88.1,76.2,30.07,ESE,113,2.0,2.0,68,0.00,,,0.00,Wunderground PWS Mod,2015-08-04 15:25:00,
2015-08-04 11:35:00,88.8,76.0,30.07,SE,131,1.0,7.0,66,0.00,,,0.00,Wunderground PWS Mod,2015-08-04 15:35:00,
2015-08-04 11:40:00,88.8,76.0,30.08,SE,135,4.0,9.0,66,0.00,,,0.00,Wunderground PWS Mod,2015-08-04 15:40:00,
2015-08-04 11:45:00,89.2,75.9,30.07,SE,129,2.0,2.0,65,0.00,,,0.00,Wunderground PWS Mod,2015-08-04 15:45:00,
2015-08-04 11:55:00,89.3,75.5,30.07,ESE,113,2.0,2.0,64,0.00,,,0.00,Wunderground PWS Mod,2015-08-04 15:55:00,
2015-08-04 12:05:00,89.8,76.0,30.07,ESE,113,2.0,9.0,64,0.00,,,0.00,Wunderground PWS Mod,2015-08-04 16:05:00,
2015-08-04 12:10:00,90.0,75.7,30.07,ESE,108,2.0,2.0,63,0.00,,,0.00,Wunderground PWS Mod,2015-08-04 16:10:00,
2015-08-04 12:15:00,89.9,76.1,30.07,ESE,108,2.0,2.0,64,0.00,,,0.00,Wunderground PWS Mod,2015-08-04 16:15:00,
2015-08-04 12:25:00,90.8,76.5,30.07,ESE,108,1.0,6.0,63,0.00,,,0.00,Wunderground PWS Mod,2015-08-04 16:25:00,
2015-08-04 12:35:00,91.1,75.8,30.07,SE,124,3.0,3.0,61,0.00,,,0.00,Wunderground PWS Mod,2015-08-04 16:35:00,
2015-08-04 12:40:00,91.1,76.3,30.07,ESE,113,3.0,6.0,62,0.00,,,0.00,Wunderground PWS Mod,2015-08-04 16:40:00,
2015-08-04 12:45:00,90.7,75.9,30.07,ESE,120,2.0,6.0,62,0.00,,,0.00,Wunderground PWS Mod,2015-08-04 16:45:00,
2015-08-04 12:55:00,90.2,75.9,30.07,ESE,106,3.0,3.0,63,0.00,,,0.00,Wunderground PWS Mod,2015-08-04 16:55:00,
2015-08-04 13:00:00,90.0,75.2,30.07,ESE,113,2.0,7.0,62,0.00,,,0.00,Wunderground PWS Mod,2015-08-04 17:00:00,
2015-08-04 13:10:00,90.7,75.4,30.08,SE,129,2.0,2.0,61,0.00,,,0.00,Wunderground PWS Mod,2015-08-04 17:10:00,
2015-08-04 13:15:00,90.8,75.5,30.08,SE,129,1.0,1.0,61,0.00,,,0.00,Wunderground PWS Mod,2015-08-04 17:15:00,
2015-08-04 13:25:00,89.0,72.8,30.08,SE,136,1.0,6.0,59,0.00,,,0.00,Wunderground PWS Mod,2015-08-04 17:25:00,
2015-08-04 13:30:00,88.5,71.8,30.08,SE,135,0.0,1.0,58,0.00,,,0.00,Wunderground PWS Mod,2015-08-04 17:30:00,
2015-08-04 13:40:00,87.2,71.6,30.08,SE,139,0.0,0.0,60,0.00,,,0.00,Wunderground PWS Mod,2015-08-04 17:40:00,
2015-08-04 13:45:00,88.4,72.2,30.08,SE,139,0.0,0.0,59,0.00,,,0.00,Wunderground PWS Mod,2015-08-04 17:45:00,
2015-08-04 13:55:00,89.4,72.7,30.08,SE,139,0.0,0.0,58,0.00,,,0.00,Wunderground PWS Mod,2015-08-04 17:55:00,
2015-08-04 14:00:00,90.5,71.0,30.08,West,269,0.0,2.0,53,0.00,,,0.00,Wunderground PWS Mod,2015-08-04 18:00:00,
2015-08-04 14:05:00,89.1,71.9,30.08,West,269,0.0,2.0,57,0.00,,,0.00,Wunderground PWS Mod,2015-08-04 18:05:00,
2015-08-04 14:15:00,89.1,72.9,30.08,West,270,0.0,1.0,59,0.00,,,0.00,Wunderground PWS Mod,2015-08-04 18:15:00,
2015-08-04 14:25:00,89.0,74.3,30.06,SSW,196,0.0,0.0,62,0.00,,,0.00,Wunderground PWS Mod,2015-08-04 18:25:00,
2015-08-04 14:30:00,90.3,76.0,30.06,SE,131,0.0,4.0,63,0.00,,,0.00,Wunderground PWS Mod,2015-08-04 18:30:00,
2015-08-04 14:35:00,91.1,75.3,30.06,East,98,0.0,4.0,60,0.00,,,0.00,Wunderground PWS Mod,2015-08-04 18:35:00,
2015-08-04 14:45:00,91.0,74.7,30.06,ENE,59,1.0,1.0,59,0.00,,,0.00,Wunderground PWS Mod,2015-08-04 18:45:00,
2015-08-04 14:50:00,90.7,75.4,30.05,ENE,68,0.0,1.0,61,0.00,,,0.00,Wunderground PWS Mod,2015-08-04 18:50:00,
2015-08-04 14:55:00,91.5,74.6,30.05,ESE,112,2.0,7.0,58,0.00,,,0.00,Wunderground PWS Mod,2015-08-04 18:55:00,
2015-08-04 15:05:00,91.3,75.5,30.05,East,96,2.0,7.0,60,0.00,,,0.00,Wunderground PWS Mod,2015-08-04 19:05:00,
2015-08-04 15:15:00,91.8,75.4,30.05,SE,127,2.0,2.0,59,0.00,,,0.00,Wunderground PWS Mod,2015-08-04 19:15:00,
2015-08-04 15:20:00,91.9,75.0,30.05,ESE,113,1.0,3.0,58,0.00,,,0.00,Wunderground PWS Mod,2015-08-04 19:20:00,
2015-08-04 15:25:00,91.4,75.1,30.05,SE,124,2.0,7.0,59,0.00,,,0.00,Wunderground PWS Mod,2015-08-04 19:25:00,
2015-08-04 15:35:00,91.7,75.3,30.05,SE,129,4.0,4.0,59,0.00,,,0.00,Wunderground PWS Mod,2015-08-04 19:35:00,
2015-08-04 15:40:00,91.7,74.8,30.05,ESE,113,2.0,6.0,58,0.00,,,0.00,Wunderground PWS Mod,2015-08-04 19:40:00,
2015-08-04 15:50:00,91.4,74.5,30.05,ESE,113,3.0,3.0,58,0.00,,,0.00,Wunderground PWS Mod,2015-08-04 19:50:00,
2015-08-04 15:55:00,91.6,74.7,30.05,ESE,115,2.0,3.0,58,0.00,,,0.00,Wunderground PWS Mod,2015-08-04 19:55:00,
2015-08-04 16:05:00,91.0,74.2,30.05,ESE,112,3.0,5.0,58,0.00,,,0.00,Wunderground PWS Mod,2015-08-04 20:05:00,
2015-08-04 16:10:00,91.3,74.4,30.05,East,90,3.0,5.0,58,0.00,,,0.00,Wunderground PWS Mod,2015-08-04 20:10:00,
2015-08-04 16:20:00,90.6,73.8,30.05,ESE,121,5.0,5.0,58,0.00,,,0.00,Wunderground PWS Mod,2015-08-04 20:20:00,
2015-08-04 16:25:00,91.2,74.9,30.05,SE,131,5.0,5.0,59,0.00,,,0.00,Wunderground PWS Mod,2015-08-04 20:25:00,
2015-08-04 16:35:00,91.3,74.4,30.04,ESE,121,3.0,7.0,58,0.00,,,0.00,Wunderground PWS Mod,2015-08-04 20:35:00,
2015-08-04 16:40:00,90.3,75.0,30.04,ESE,123,3.0,13.0,61,0.00,,,0.00,Wunderground PWS Mod,2015-08-04 20:40:00,
2015-08-04 16:45:00,89.8,75.0,30.04,SE,129,6.0,6.0,62,0.00,,,0.00,Wunderground PWS Mod,2015-08-04 20:45:00,
2015-08-04 16:55:00,90.0,74.7,30.04,ESE,113,3.0,9.0,61,0.00,,,0.00,Wunderground PWS Mod,2015-08-04 20:55:00,
2015-08-04 17:05:00,89.8,75.5,30.05,ESE,103,3.0,3.0,63,0.00,,,0.00,Wunderground PWS Mod,2015-08-04 21:05:00,
2015-08-04 17:10:00,89.5,75.7,30.05,ESE,113,3.0,8.0,64,0.00,,,0.00,Wunderground PWS Mod,2015-08-04 21:10:00,
2015-08-04 17:15:00,89.4,75.6,30.05,SE,135,3.0,3.0,64,0.00,,,0.00,Wunderground PWS Mod,2015-08-04 21:15:00,
2015-08-04 17:25:00,88.8,75.5,30.05,SE,128,2.0,2.0,65,0.00,,,0.00,Wunderground PWS Mod,2015-08-04 21:25:00,
2015-08-04 17:30:00,88.6,75.3,30.05,ESE,113,5.0,11.0,65,0.00,,,0.00,Wunderground PWS Mod,2015-08-04 21:30:00,
2015-08-04 17:35:00,87.9,75.1,30.05,ESE,122,4.0,4.0,66,0.00,,,0.00,Wunderground PWS Mod,2015-08-04 21:35:00,
2015-08-04 17:45:00,88.0,74.8,30.05,SE,128,3.0,11.0,65,0.00,,,0.00,Wunderground PWS Mod,2015-08-04 21:45:00,
2015-08-04 17:55:00,87.3,75.0,30.04,ESE,122,4.0,4.0,67,0.00,,,0.00,Wunderground PWS Mod,2015-08-04 21:55:00,
2015-08-04 18:00:00,87.4,74.6,30.04,SE,126,3.0,9.0,66,0.00,,,0.00,Wunderground PWS Mod,2015-08-04 22:00:00,
2015-08-04 18:10:00,86.9,74.6,30.04,SE,127,4.0,4.0,67,0.00,,,0.00,Wunderground PWS Mod,2015-08-04 22:10:00,
2015-08-04 18:15:00,87.2,74.5,30.04,SE,127,2.0,2.0,66,0.00,,,0.00,Wunderground PWS Mod,2015-08-04 22:15:00,
2015-08-04 18:25:00,86.6,73.9,30.03,ESE,123,3.0,3.0,66,0.00,,,0.00,Wunderground PWS Mod,2015-08-04 22:25:00,
2015-08-04 18:30:00,86.2,74.8,30.03,ESE,122,2.0,2.0,69,0.00,,,0.00,Wunderground PWS Mod,2015-08-04 22:30:00,
2015-08-04 18:35:00,86.9,74.6,30.03,ESE,122,1.0,7.0,67,0.00,,,0.00,Wunderground PWS Mod,2015-08-04 22:35:00,
2015-08-04 18:45:00,86.0,74.2,30.03,ESE,121,2.0,2.0,68,0.00,,,0.00,Wunderground PWS Mod,2015-08-04 22:45:00,
2015-08-04 18:55:00,85.9,74.1,30.04,ESE,121,2.0,2.0,68,0.00,,,0.00,Wunderground PWS Mod,2015-08-04 22:55:00,
2015-08-04 19:00:00,85.8,74.0,30.04,ESE,121,3.0,7.0,68,0.00,,,0.00,Wunderground PWS Mod,2015-08-04 23:00:00,
2015-08-04 19:10:00,85.5,74.6,30.04,ESE,123,4.0,4.0,70,0.00,,,0.00,Wunderground PWS Mod,2015-08-04 23:10:00,
2015-08-04 19:15:00,85.4,74.5,30.04,ESE,123,3.0,3.0,70,0.00,,,0.00,Wunderground PWS Mod,2015-08-04 23:15:00,
2015-08-04 19:25:00,85.0,74.5,30.04,ESE,122,3.0,5.0,71,0.00,,,0.00,Wunderground PWS Mod,2015-08-04 23:25:00,
2015-08-04 19:30:00,84.8,74.8,30.04,ESE,123,3.0,3.0,72,0.00,,,0.00,Wunderground PWS Mod,2015-08-04 23:30:00,
2015-08-04 19:35:00,84.7,75.1,30.05,ESE,122,3.0,3.0,73,0.00,,,0.00,Wunderground PWS Mod,2015-08-04 23:35:00,
2015-08-04 19:45:00,84.3,74.7,30.05,ESE,122,2.0,5.0,73,0.00,,,0.00,Wunderground PWS Mod,2015-08-04 23:45:00,
2015-08-04 19:50:00,84.3,74.3,30.05,ESE,113,4.0,7.0,72,0.00,,,0.00,Wunderground PWS Mod,2015-08-04 23:50:00,
2015-08-04 19:55:00,84.2,74.6,30.05,ESE,122,3.0,3.0,73,0.00,,,0.00,Wunderground PWS Mod,2015-08-04 23:55:00,
2015-08-04 20:05:00,84.1,74.5,30.06,ESE,122,1.0,1.0,73,0.00,,,0.00,Wunderground PWS Mod,2015-08-05 00:05:00,
2015-08-04 20:10:00,84.0,74.4,30.06,ESE,113,3.0,6.0,73,0.00,,,0.00,Wunderground PWS Mod,2015-08-05 00:10:00,
2015-08-04 20:20:00,83.8,74.2,30.07,ESE,122,1.0,7.0,73,0.00,,,0.00,Wunderground PWS Mod,2015-08-05 00:20:00,
2015-08-04 20:25:00,83.7,74.1,30.07,ESE,122,2.0,2.0,73,0.00,,,0.00,Wunderground PWS Mod,2015-08-05 00:25:00,
2015-08-04 20:35:00,83.7,73.7,30.07,ESE,122,1.0,1.0,72,0.00,,,0.00,Wunderground PWS Mod,2015-08-05 00:35:00,
2015-08-04 20:45:00,83.6,73.2,30.07,ESE,122,2.0,2.0,71,0.00,,,0.00,Wunderground PWS Mod,2015-08-05 00:45:00,
2015-08-04 20:55:00,83.6,73.6,30.07,ESE,122,3.0,3.0,72,0.00,,,0.00,Wunderground PWS Mod,2015-08-05 00:55:00,
2015-08-04 21:00:00,83.5,73.5,30.07,ESE,122,1.0,1.0,72,0.00,,,0.00,Wunderground PWS Mod,2015-08-05 01:00:00,
2015-08-04 21:05:00,83.5,73.5,30.07,ESE,122,0.0,0.0,72,0.00,,,0.00,Wunderground PWS Mod,2015-08-05 01:05:00,
2015-08-04 21:15:00,83.5,73.5,30.07,ESE,122,2.0,2.0,72,0.00,,,0.00,Wunderground PWS Mod,2015-08-05 01:15:00,
2015-08-04 21:25:00,83.4,74.2,30.08,ESE,122,1.0,1.0,74,0.00,,,0.00,Wunderground PWS Mod,2015-08-05 01:25:00,
2015-08-04 21:35:00,83.3,74.1,30.08,ESE,122,1.0,3.0,74,0.00,,,0.00,Wunderground PWS Mod,2015-08-05 01:35:00,
2015-08-04 21:45:00,83.1,74.4,30.08,ESE,122,0.0,0.0,75,0.00,,,0.00,Wunderground PWS Mod,2015-08-05 01:45:00,
2015-08-04 21:50:00,83.0,74.3,30.08,N/A,-737280,0.0,0.0,75,0.00,,,0.00,Wunderground PWS Mod,2015-08-05 01:50:00,
2015-08-04 21:55:00,83.0,73.9,30.08,ESE,122,1.0,1.0,74,0.00,,,0.00,Wunderground PWS Mod,2015-08-05 01:55:00,
2015-08-04 22:05:00,83.0,73.9,30.09,SE,127,2.0,2.0,74,0.00,,,0.00,Wunderground PWS Mod,2015-08-05 02:05:00,
2015-08-04 22:15:00,83.0,73.4,30.09,SE,128,3.0,3.0,73,0.00,,,0.00,Wunderground PWS Mod,2015-08-05 02:15:00,
2015-08-04 22:25:00,82.9,73.8,30.09,SE,131,2.0,2.0,74,0.00,,,0.00,Wunderground PWS Mod,2015-08-05 02:25:00,
2015-08-04 22:30:00,82.9,73.8,30.09,SE,135,1.0,4.0,74,0.00,,,0.00,Wunderground PWS Mod,2015-08-05 02:30:00,
2015-08-04 22:35:00,83.0,74.3,30.09,SE,133,1.0,1.0,75,0.00,,,0.00,Wunderground PWS Mod,2015-08-05 02:35:00,
2015-08-04 22:45:00,82.9,74.2,30.09,SE,139,2.0,6.0,75,0.00,,,0.00,Wunderground PWS Mod,2015-08-05 02:45:00,
2015-08-04 22:55:00,82.9,74.6,30.09,SE,138,2.0,2.0,76,0.00,,,0.00,Wunderground PWS Mod,2015-08-05 02:55:00,
2015-08-04 23:05:00,82.8,74.5,30.09,SE,138,1.0,1.0,76,0.00,,,0.00,Wunderground PWS Mod,2015-08-05 03:05:00,
2015-08-04 23:15:00,82.8,74.5,30.09,SE,137,2.0,2.0,76,0.00,,,0.00,Wunderground PWS Mod,2015-08-05 03:15:00,
2015-08-04 23:20:00,82.7,74.4,30.09,SE,137,2.0,4.0,76,0.00,,,0.00,Wunderground PWS Mod,2015-08-05 03:20:00,
2015-08-04 23:25:00,82.6,74.7,30.09,SE,137,2.0,2.0,77,0.00,,,0.00,Wunderground PWS Mod,2015-08-05 03:25:00,
2015-08-04 23:35:00,82.6,74.7,30.09,SE,139,1.0,4.0,77,0.00,,,0.00,Wunderground PWS Mod,2015-08-05 03:35:00,
2015-08-04 23:45:00,82.5,74.6,30.09,SE,139,1.0,4.0,77,0.00,,,0.00,Wunderground PWS Mod,2015-08-05 03:45:00,
2015-08-04 23:55:00,82.5,74.6,30.09,SE,139,1.0,4.0,77,0.00,,,0.00,Wunderground PWS Mod,2015-08-05 03:55:00,